createdAt,value
2018-11-06T00:01:43.059Z,9.13
2018-11-06T00:04:16.512Z,15.83
2018-11-06T00:06:49.106Z,10.63
2018-11-06T00:09:21.989Z,12.07
2018-11-06T00:11:54.649Z,14.07
2018-11-06T00:14:27.796Z,24.90
2018-11-06T00:19:38.584Z,30.93
2018-11-06T00:22:11.705Z,32.23
2018-11-06T00:24:44.249Z,26.13
2018-11-06T00:27:17.528Z,31.87
2018-11-06T00:29:51.088Z,25.67
2018-11-06T00:32:25.257Z,16.57
2018-11-06T00:34:58.523Z,22.20
2018-11-06T00:37:31.702Z,22.37
2018-11-06T00:40:05.056Z,20.73
2018-11-06T00:42:37.828Z,16.90
2018-11-06T00:45:14.911Z,16.03
2018-11-06T00:47:51.576Z,14.03
2018-11-06T00:50:24.724Z,15.53
2018-11-06T00:52:57.603Z,10.10
2018-11-06T00:55:30.428Z,6.73
2018-11-06T00:58:03.552Z,7.73
2018-11-06T01:00:37.103Z,9.87
2018-11-06T01:03:12.518Z,10.03
2018-11-06T01:05:47.116Z,9.27
2018-11-06T01:08:20.703Z,8.13
2018-11-06T01:10:54.386Z,8.80
2018-11-06T01:13:27.830Z,5.73
2018-11-06T01:19:21.986Z,7.67
2018-11-06T01:21:56.194Z,9.93
2018-11-06T01:24:52.520Z,10.20
2018-11-06T01:27:24.992Z,10.53
2018-11-06T01:33:29.696Z,10.33
2018-11-06T01:36:02.396Z,12.37
2018-11-06T01:38:35.264Z,11.77
2018-11-06T01:41:08.154Z,11.60
2018-11-06T01:43:40.857Z,9.07
2018-11-06T01:46:13.678Z,16.00
2018-11-06T01:48:46.413Z,16.33
2018-11-06T01:51:19.051Z,13.47
2018-11-06T01:53:51.726Z,12.53
2018-11-06T01:56:24.314Z,12.00
2018-11-06T01:58:57.125Z,10.60
2018-11-06T02:01:29.788Z,19.03
2018-11-06T02:04:03.017Z,13.50
2018-11-06T02:06:36.092Z,16.00
2018-11-06T02:09:12.412Z,18.30
2018-11-06T02:11:45.510Z,14.37
2018-11-06T02:14:19.059Z,12.27
2018-11-06T02:16:51.853Z,12.20
2018-11-06T02:19:25.417Z,13.63
2018-11-06T02:21:58.846Z,11.67
2018-11-06T02:24:32.577Z,12.17
2018-11-06T02:27:05.333Z,13.97
2018-11-06T02:29:38.941Z,12.70
2018-11-06T02:32:12.867Z,10.23
2018-11-06T02:34:46.080Z,10.20
2018-11-06T02:37:19.643Z,14.53
2018-11-06T02:39:52.598Z,19.97
2018-11-06T02:42:26.394Z,10.93
2018-11-06T02:45:05.813Z,13.10
2018-11-06T02:47:39.580Z,12.40
2018-11-06T02:50:14.152Z,12.37
2018-11-06T02:52:47.567Z,12.57
2018-11-06T02:55:20.972Z,15.80
2018-11-06T02:57:54.243Z,14.63
2018-11-06T03:00:27.944Z,9.90
2018-11-06T03:03:01.464Z,13.07
2018-11-06T03:05:36.587Z,14.63
2018-11-06T03:08:14.225Z,10.00
2018-11-06T03:10:52.928Z,18.03
2018-11-06T03:13:28.384Z,11.73
2018-11-06T03:16:05.724Z,14.33
2018-11-06T03:18:38.316Z,18.87
2018-11-06T03:21:12.079Z,16.57
2018-11-06T03:23:45.283Z,15.33
2018-11-06T03:26:18.701Z,18.27
2018-11-06T03:28:51.635Z,16.80
2018-11-06T03:34:46.406Z,22.50
2018-11-06T03:37:19.071Z,22.23
2018-11-06T03:39:52.355Z,20.17
2018-11-06T03:42:25.365Z,23.83
2018-11-06T03:44:58.648Z,25.80
2018-11-06T03:47:33.608Z,16.73
2018-11-06T03:53:28.109Z,14.17
2018-11-06T03:56:00.519Z,21.43
2018-11-06T03:58:35.751Z,20.67
2018-11-06T04:01:08.901Z,16.77
2018-11-06T04:14:48.406Z,20.47
2018-11-06T04:17:21.774Z,18.50
2018-11-06T04:23:15.984Z,13.60
2018-11-06T04:25:49.218Z,13.93
2018-11-06T04:28:22.740Z,15.00
2018-11-06T04:30:56.048Z,14.93
2018-11-06T04:33:29.443Z,14.10
2018-11-06T04:36:02.569Z,19.53
2018-11-06T04:41:56.650Z,10.87
2018-11-06T04:47:51.091Z,11.23
2018-11-06T04:50:24.665Z,11.00
2018-11-06T04:52:57.979Z,12.83
2018-11-06T04:55:31.260Z,15.70
2018-11-06T04:58:04.198Z,16.17
2018-11-06T05:00:37.383Z,13.53
2018-11-06T05:03:10.401Z,12.03
2018-11-06T05:05:43.594Z,12.27
2018-11-06T05:08:16.782Z,14.37
2018-11-06T05:10:50.229Z,16.63
2018-11-06T05:13:49.436Z,16.67
2018-11-06T05:16:22.351Z,18.30
2018-11-06T05:18:55.174Z,12.17
2018-11-06T05:21:28.047Z,12.47
2018-11-06T05:24:01.277Z,15.07
2018-11-06T05:26:34.151Z,13.90
2018-11-06T05:32:39.000Z,18.30
2018-11-06T05:35:13.596Z,15.53
2018-11-06T05:37:46.714Z,12.03
2018-11-06T05:40:28.808Z,14.70
2018-11-06T05:43:01.260Z,16.87
2018-11-06T05:45:34.681Z,11.90
2018-11-06T05:48:08.610Z,13.20
2018-11-06T05:50:41.606Z,13.20
2018-11-06T05:53:15.029Z,12.13
2018-11-06T05:55:48.518Z,13.83
2018-11-06T05:58:22.078Z,13.67
2018-11-06T06:00:55.363Z,12.17
2018-11-06T06:03:28.508Z,13.60
2018-11-06T06:06:01.504Z,13.17
2018-11-06T06:08:34.916Z,17.00
2018-11-06T06:11:08.086Z,18.20
2018-11-06T06:13:41.164Z,15.00
2018-11-06T06:16:14.329Z,14.17
2018-11-06T06:18:47.632Z,15.37
2018-11-06T06:21:20.608Z,13.37
2018-11-06T06:23:53.970Z,15.33
2018-11-06T06:26:26.798Z,11.60
2018-11-06T06:28:59.699Z,14.87
2018-11-06T06:31:32.895Z,13.57
2018-11-06T06:34:06.331Z,16.43
2018-11-06T06:36:39.534Z,14.60
2018-11-06T06:39:12.785Z,9.83
2018-11-06T06:41:45.910Z,16.90
2018-11-06T06:44:18.968Z,11.43
2018-11-06T06:46:52.432Z,16.13
2018-11-06T06:49:25.553Z,13.77
2018-11-06T06:51:58.690Z,13.37
2018-11-06T06:54:32.256Z,13.30
2018-11-06T06:57:05.350Z,13.47
2018-11-06T07:03:01.011Z,17.60
2018-11-06T07:05:34.724Z,19.10
2018-11-06T07:08:08.557Z,16.83
2018-11-06T07:10:42.022Z,14.40
2018-11-06T07:13:15.827Z,16.00
2018-11-06T07:15:49.331Z,19.30
2018-11-06T07:18:51.061Z,15.63
2018-11-06T07:21:24.698Z,22.27
2018-11-06T07:23:58.246Z,17.17
2018-11-06T07:26:31.792Z,14.67
2018-11-06T07:29:05.313Z,19.10
2018-11-06T07:31:38.202Z,16.43
2018-11-06T07:34:11.898Z,23.30
2018-11-06T07:36:45.406Z,20.20
2018-11-06T07:42:42.554Z,15.63
2018-11-06T07:48:36.927Z,17.30
2018-11-06T07:51:10.147Z,12.77
2018-11-06T07:53:43.468Z,17.33
2018-11-06T07:56:16.775Z,18.30
2018-11-06T07:58:50.255Z,14.67
2018-11-06T08:01:23.360Z,20.00
2018-11-06T08:03:56.747Z,15.20
2018-11-06T08:06:30.064Z,14.37
2018-11-06T08:09:04.469Z,13.70
2018-11-06T08:11:38.848Z,15.23
2018-11-06T08:14:12.129Z,13.13
2018-11-06T08:16:45.702Z,12.13
2018-11-06T08:19:19.487Z,12.33
2018-11-06T08:21:52.861Z,13.33
2018-11-06T08:24:26.345Z,12.93
2018-11-06T08:26:59.706Z,12.00
2018-11-06T08:29:33.470Z,12.23
2018-11-06T08:32:07.391Z,13.10
2018-11-06T08:34:40.830Z,11.47
2018-11-06T08:37:14.148Z,13.03
2018-11-06T08:39:47.792Z,11.77
2018-11-06T08:42:21.306Z,14.07
2018-11-06T08:44:54.693Z,12.73
2018-11-06T08:47:28.364Z,13.70
2018-11-06T16:09:02.511Z,6.05
2018-11-06T16:11:38.674Z,12.00
2018-11-06T16:14:13.764Z,9.07
2018-11-06T16:16:47.624Z,6.70
2018-11-06T16:21:50.690Z,6.92
2018-11-06T16:24:22.933Z,6.15
2018-11-06T16:26:55.576Z,7.47
2018-11-06T16:29:35.174Z,9.50
2018-11-06T16:32:08.351Z,6.23
2018-11-06T16:34:41.898Z,17.07
2018-11-06T16:37:15.478Z,11.45
2018-11-06T16:39:47.949Z,8.78
2018-11-06T16:42:20.453Z,15.05
2018-11-06T16:44:53.572Z,11.93
2018-11-06T16:47:25.892Z,10.90
2018-11-06T16:50:02.497Z,15.30
2018-11-06T16:52:35.056Z,8.80
2018-11-06T16:55:09.753Z,6.73
2018-11-06T16:57:46.257Z,4.67
2018-11-06T17:00:23.355Z,10.93
2018-11-06T17:02:55.878Z,7.03
2018-11-06T17:05:28.339Z,6.60
2018-11-06T17:08:00.801Z,10.40
2018-11-06T17:10:35.056Z,9.77
2018-11-06T17:13:12.321Z,7.37
2018-11-06T17:15:50.830Z,9.18
2018-11-06T17:18:29.326Z,11.85
2018-11-06T17:21:02.792Z,11.10
2018-11-06T17:24:05.329Z,12.50
2018-11-06T17:29:08.734Z,6.15
2018-11-06T17:31:42.452Z,7.50
2018-11-06T17:34:15.020Z,10.68
2018-11-06T17:36:47.702Z,6.20
2018-11-06T17:39:22.508Z,13.10
2018-11-06T18:03:23.627Z,30.25
2018-11-06T18:08:28.609Z,8.83
2018-11-06T18:11:04.665Z,36.25
2018-11-06T18:13:37.913Z,8.38
2018-11-06T18:16:13.933Z,8.93
2018-11-06T18:21:19.966Z,10.10
2018-11-06T18:26:27.058Z,7.58
2018-11-06T19:15:29.402Z,6.45
2018-11-06T19:45:18.317Z,10.10
2018-11-06T19:48:18.964Z,7.28
2018-11-06T19:51:13.461Z,9.83
2018-11-06T19:54:11.712Z,7.05
2018-11-06T20:30:37.898Z,6.83
2018-11-06T20:33:10.998Z,7.97
2018-11-06T20:38:15.226Z,11.80
2018-11-06T20:40:48.134Z,11.28
2018-11-06T20:43:21.595Z,8.65
2018-11-06T20:45:55.482Z,8.83
2018-11-06T20:48:28.370Z,6.80
2018-11-06T21:06:09.072Z,9.55
2018-11-06T21:08:41.963Z,10.40
2018-11-06T21:11:14.643Z,6.58
2018-11-06T21:13:47.305Z,8.03
2018-11-06T21:16:20.818Z,12.90
2018-11-06T21:18:54.620Z,7.28
2018-11-06T21:21:27.893Z,8.00
2018-11-06T21:24:01.566Z,10.70
2018-11-06T21:32:26.201Z,15.38
2018-11-06T22:05:31.878Z,9.27
2018-11-06T22:08:05.072Z,5.97
2018-11-06T22:10:38.143Z,6.23
2018-11-06T22:13:11.717Z,17.87
2018-11-06T22:15:44.435Z,23.30
2018-11-06T22:18:17.359Z,21.30
2018-11-06T22:20:50.574Z,12.15
2018-11-06T22:23:23.564Z,6.70
2018-11-06T22:25:56.057Z,6.23
2018-11-06T22:28:29.084Z,12.47
2018-11-06T22:31:26.105Z,6.07
2018-11-06T22:33:59.292Z,7.40
2018-11-06T22:36:32.238Z,5.17
2018-11-06T22:39:05.302Z,5.30
2018-11-06T22:41:38.715Z,7.87
2018-11-06T22:44:12.119Z,4.10
2018-11-06T22:46:45.565Z,5.40
2018-11-06T22:49:20.127Z,5.13
2018-11-06T22:51:53.220Z,7.63
2018-11-06T22:54:26.310Z,6.77
2018-11-06T22:56:59.562Z,6.53
2018-11-06T22:59:32.756Z,9.30
2018-11-06T23:02:05.858Z,8.83
2018-11-06T23:04:39.475Z,10.73
2018-11-06T23:07:18.784Z,9.57
2018-11-06T23:09:52.108Z,10.77
2018-11-06T23:12:25.331Z,8.43
2018-11-06T23:14:58.638Z,5.67
2018-11-06T23:17:31.975Z,7.13
2018-11-06T23:20:05.607Z,6.20
2018-11-06T23:22:38.750Z,6.70
2018-11-06T23:25:11.676Z,10.90
2018-11-06T23:27:44.792Z,7.20
2018-11-06T23:30:18.240Z,11.20
2018-11-06T23:35:30.539Z,9.60
2018-11-06T23:38:03.841Z,10.53
2018-11-06T23:40:37.285Z,13.70
2018-11-06T23:43:10.266Z,7.40
2018-11-06T23:45:43.286Z,8.83
2018-11-06T23:48:16.516Z,10.50
2018-11-06T23:50:50.559Z,12.40
2018-11-06T23:53:23.455Z,25.73
2018-11-06T23:55:57.018Z,19.90
2018-11-06T23:58:30.542Z,29.03
